Time;durP1;ratioP1;P1;durP2;ratioP2;P2;SDS_P1;SDS_P2;PMS_P1;PMS_P2;Temp;Humidity;BMP_temperature;BMP_pressure;BME280_temperature;BME280_humidity;BME280_pressure;Samples;Min_cycle;Max_cycle;Signal;HPM_P1;HPM_P2
2022/02/08 00:01:35;;;;;;;14.43;2.92;;;;;;;;;;5063683;28;20452;-71
2022/02/08 00:04:00;;;;;;;19.02;3.05;;;;;;;;;;5062971;28;20044;-71
2022/02/08 00:06:43;;;;;;;12.47;2.50;;;;;;;;;;5061090;28;20048;-72
2022/02/08 00:09:10;;;;;;;18.63;2.33;;;;;;;;;;5068494;28;20282;-71
2022/02/08 00:11:35;;;;;;;15.70;2.65;;;;;;;;;;5060227;28;20044;-71
2022/02/08 00:14:00;;;;;;;13.95;1.90;;;;;;;;;;5061490;28;20056;-71
2022/02/08 00:16:26;;;;;;;20.77;3.55;;;;;;;;;;5066166;28;20016;-71
2022/02/08 00:18:51;;;;;;;14.98;2.22;;;;;;;;;;5045884;28;20090;-71
2022/02/08 00:21:16;;;;;;;16.57;2.80;;;;;;;;;;5059597;28;20108;-71
2022/02/08 00:23:41;;;;;;;23.17;3.30;;;;;;;;;;5065131;28;20271;-71
2022/02/08 00:26:06;;;;;;;30.33;2.65;;;;;;;;;;5068190;28;20107;-72
2022/02/08 00:28:32;;;;;;;16.42;2.75;;;;;;;;;;5069234;28;20032;-71
2022/02/08 00:30:57;;;;;;;16.70;3.90;;;;;;;;;;5064977;28;20054;-72
2022/02/08 00:33:22;;;;;;;23.25;4.10;;;;;;;;;;5070934;28;20503;-71
2022/02/08 00:35:47;;;;;;;14.55;2.10;;;;;;;;;;5071991;28;20024;-71
2022/02/08 00:38:13;;;;;;;10.13;2.83;;;;;;;;;;5071353;28;20021;-71
2022/02/08 00:40:38;;;;;;;25.20;4.93;;;;;;;;;;5047997;28;20028;-71
2022/02/08 00:43:05;;;;;;;33.33;3.45;;;;;;;;;;5062852;28;20167;-71
2022/02/08 00:45:45;;;;;;;17.75;3.03;;;;;;;;;;5046588;28;20028;-71
2022/02/08 00:48:18;;;;;;;19.52;3.42;;;;;;;;;;5047122;28;20115;-71
2022/02/08 00:50:49;;;;;;;19.83;3.08;;;;;;;;;;5064040;28;20452;-71
2022/02/08 00:53:15;;;;;;;22.75;4.00;;;;;;;;;;5063217;28;20024;-71
2022/02/08 00:55:40;;;;;;;14.80;2.55;;;;;;;;;;5063583;28;20027;-71
2022/02/08 00:58:05;;;;;;;21.00;3.40;;;;;;;;;;5063570;28;20055;-71
2022/02/08 01:00:30;;;;;;;15.48;3.63;;;;;;;;;;5065043;28;20099;-71
2022/02/08 01:02:58;;;;;;;15.10;4.10;;;;;;;;;;5068341;28;20074;-71
2022/02/08 01:05:23;;;;;;;19.27;2.72;;;;;;;;;;5063045;28;20017;-71
2022/02/08 01:07:48;;;;;;;22.35;2.80;;;;;;;;;;5064883;28;20030;-71
2022/02/08 01:10:17;;;;;;;15.02;2.30;;;;;;;;;;5064319;28;20456;-71
2022/02/08 01:12:43;;;;;;;17.38;3.22;;;;;;;;;;5062246;28;20020;-71
2022/02/08 01:15:09;;;;;;;10.05;2.63;;;;;;;;;;5070552;28;20357;-71
2022/02/08 01:17:35;;;;;;;16.70;2.58;;;;;;;;;;5065464;28;20025;-72
2022/02/08 01:20:11;;;;;;;23.70;4.55;;;;;;;;;;5062547;28;20174;-70
2022/02/08 01:22:39;;;;;;;23.73;2.72;;;;;;;;;;5064529;28;20044;-71
2022/02/08 01:25:06;;;;;;;20.60;3.45;;;;;;;;;;5063154;28;20017;-71
2022/02/08 01:27:36;;;;;;;12.82;3.53;;;;;;;;;;5070315;28;20423;-71
2022/02/08 01:30:02;;;;;;;23.38;3.47;;;;;;;;;;5061222;28;20028;-71
2022/02/08 01:37:42;;;;;;;7.20;1.80;;;;;;;;;;5063090;28;20013;-71
2022/02/08 01:42:50;;;;;;;12.30;2.45;;;;;;;;;;5059288;28;20060;-71
2022/02/08 01:48:00;;;;;;;10.23;2.78;;;;;;;;;;5081404;28;20110;-72
2022/02/08 01:50:25;;;;;;;12.70;2.97;;;;;;;;;;5067871;28;20392;-71
2022/02/08 01:52:50;;;;;;;14.10;4.15;;;;;;;;;;5063606;28;20066;-71
2022/02/08 01:55:16;;;;;;;12.47;2.47;;;;;;;;;;5061975;28;20078;-71
2022/02/08 01:57:42;;;;;;;16.60;2.78;;;;;;;;;;5062556;28;20348;-71
2022/02/08 02:00:09;;;;;;;15.40;2.67;;;;;;;;;;5063204;28;20024;-71
2022/02/08 02:02:34;;;;;;;6.22;2.33;;;;;;;;;;5060858;28;20031;-71
2022/02/08 02:04:59;;;;;;;24.02;2.92;;;;;;;;;;5066168;28;20480;-71
2022/02/08 02:07:25;;;;;;;28.10;3.50;;;;;;;;;;5062697;28;20020;-71
2022/02/08 02:09:50;;;;;;;19.67;3.35;;;;;;;;;;5068200;28;20281;-71
2022/02/08 02:12:15;;;;;;;13.70;2.47;;;;;;;;;;5061256;28;21111;-71
2022/02/08 02:14:41;;;;;;;13.65;2.22;;;;;;;;;;5066127;28;20381;-71
2022/02/08 02:17:08;;;;;;;22.50;2.92;;;;;;;;;;5067452;28;20077;-71
2022/02/08 02:19:34;;;;;;;15.48;1.95;;;;;;;;;;5066296;28;20032;-72
2022/02/08 02:22:00;;;;;;;9.85;1.98;;;;;;;;;;5064343;28;20024;-72
2022/02/08 02:24:26;;;;;;;20.73;3.60;;;;;;;;;;5061814;28;20017;-71
2022/02/08 02:26:51;;;;;;;12.02;2.40;;;;;;;;;;5069094;28;20012;-71
2022/02/08 02:29:19;;;;;;;15.93;2.53;;;;;;;;;;5063804;28;21940;-71
2022/02/08 02:31:45;;;;;;;16.70;2.92;;;;;;;;;;5065035;28;20107;-71
2022/02/08 02:34:10;;;;;;;4.78;1.95;;;;;;;;;;5067550;28;20107;-71
2022/02/08 02:36:39;;;;;;;15.75;3.35;;;;;;;;;;5067633;28;20143;-70
2022/02/08 02:39:04;;;;;;;14.82;1.95;;;;;;;;;;5066983;28;20047;-71
2022/02/08 02:41:33;;;;;;;11.52;2.15;;;;;;;;;;5064997;28;20059;-71
2022/02/08 02:44:02;;;;;;;9.15;1.80;;;;;;;;;;5060897;28;20066;-71
2022/02/08 02:46:27;;;;;;;13.45;1.90;;;;;;;;;;5061185;28;20028;-72
2022/02/08 02:48:52;;;;;;;11.38;2.20;;;;;;;;;;5063811;28;20037;-71
2022/02/08 02:51:17;;;;;;;9.98;2.40;;;;;;;;;;5064944;28;20376;-72
2022/02/08 02:53:43;;;;;;;6.85;1.48;;;;;;;;;;5062943;28;20028;-71
2022/02/08 02:56:08;;;;;;;4.47;1.30;;;;;;;;;;5062702;28;20141;-71
2022/02/08 02:58:36;;;;;;;14.70;2.25;;;;;;;;;;5072848;28;20048;-73
2022/02/08 03:01:16;;;;;;;15.38;2.03;;;;;;;;;;5061949;28;20021;-71
2022/02/08 03:19:49;;;;;;;14.27;2.42;;;;;;;;;;5065247;28;20024;-69
2022/02/08 03:22:14;;;;;;;19.23;3.47;;;;;;;;;;5070346;28;20020;-69
2022/02/08 03:24:39;;;;;;;15.10;2.00;;;;;;;;;;5065960;28;21120;-69
2022/02/08 03:27:04;;;;;;;21.42;3.00;;;;;;;;;;5066842;28;20491;-73
2022/02/08 03:29:30;;;;;;;14.15;2.00;;;;;;;;;;5046061;28;20036;-69
2022/02/08 03:31:55;;;;;;;14.15;1.60;;;;;;;;;;5061558;28;20024;-75
2022/02/08 03:34:20;;;;;;;1.77;0.98;;;;;;;;;;5055354;28;20071;-69
2022/02/08 03:36:45;;;;;;;13.20;2.60;;;;;;;;;;5070281;28;20017;-72
2022/02/08 03:39:21;;;;;;;17.30;2.10;;;;;;;;;;5069365;28;20122;-69
2022/02/08 03:41:51;;;;;;;8.93;2.20;;;;;;;;;;5069708;28;20056;-69
2022/02/08 03:44:20;;;;;;;12.52;3.13;;;;;;;;;;5067380;28;20358;-69
2022/02/08 03:46:46;;;;;;;5.28;1.35;;;;;;;;;;5068442;28;20024;-72
2022/02/08 03:49:11;;;;;;;11.18;2.25;;;;;;;;;;5063248;28;20028;-73
2022/02/08 03:51:48;;;;;;;13.73;2.17;;;;;;;;;;5069324;28;20024;-69
2022/02/08 03:54:14;;;;;;;14.68;2.50;;;;;;;;;;5069164;28;20070;-73
2022/02/08 03:56:40;;;;;;;8.23;2.40;;;;;;;;;;5060541;28;20025;-73
2022/02/08 03:59:05;;;;;;;17.48;2.05;;;;;;;;;;5058192;28;20492;-69
2022/02/08 04:06:27;;;;;;;14.55;1.92;;;;;;;;;;5062651;28;20021;-72
2022/02/08 04:08:54;;;;;;;13.45;2.33;;;;;;;;;;5072317;28;20032;-72
2022/02/08 04:11:21;;;;;;;13.63;1.85;;;;;;;;;;5072170;28;20021;-70
2022/02/08 04:13:56;;;;;;;10.63;1.17;;;;;;;;;;5062642;28;20383;-72
2022/02/08 04:16:35;;;;;;;13.55;2.38;;;;;;;;;;5063463;28;20025;-69
2022/02/08 04:19:19;;;;;;;15.85;3.75;;;;;;;;;;5049047;28;20021;-70
2022/02/08 04:38:16;;;;;;;13.07;2.67;;;;;;;;;;5069210;28;20031;-72
2022/02/08 04:40:53;;;;;;;8.95;1.77;;;;;;;;;;5072796;28;20027;-69
2022/02/08 04:45:55;;;;;;;6.20;2.58;;;;;;;;;;5071568;28;20377;-70
2022/02/08 04:50:47;;;;;;;7.88;1.85;;;;;;;;;;5067418;28;20029;-69
2022/02/08 04:53:21;;;;;;;10.13;1.58;;;;;;;;;;5057227;28;20021;-69
2022/02/08 04:55:55;;;;;;;12.32;2.60;;;;;;;;;;5063486;28;20016;-73
2022/02/08 04:58:29;;;;;;;10.60;2.35;;;;;;;;;;5068971;28;20024;-69
2022/02/08 05:34:28;;;;;;;11.57;5.53;;;;;;;;;;5070711;28;20036;-69
2022/02/08 05:48:52;;;;;;;13.65;6.65;;;;;;;;;;5070893;28;20024;-73
2022/02/08 05:51:22;;;;;;;10.38;2.88;;;;;;;;;;5062546;28;20127;-70
2022/02/08 05:53:47;;;;;;;8.88;3.58;;;;;;;;;;5068519;28;20024;-69
2022/02/08 05:56:14;;;;;;;17.02;4.82;;;;;;;;;;5070097;28;20028;-70
2022/02/08 05:58:43;;;;;;;10.95;4.47;;;;;;;;;;5063808;28;20008;-70
2022/02/08 06:01:08;;;;;;;14.40;6.78;;;;;;;;;;5062306;28;20070;-71
2022/02/08 06:03:34;;;;;;;24.48;8.77;;;;;;;;;;5060139;28;20029;-71
2022/02/08 06:05:59;;;;;;;15.60;6.43;;;;;;;;;;5059858;28;20020;-70
2022/02/08 06:08:24;;;;;;;21.25;8.75;;;;;;;;;;5058185;28;20759;-70
2022/02/08 06:10:54;;;;;;;12.73;5.55;;;;;;;;;;5060882;28;20021;-71
2022/02/08 06:13:20;;;;;;;18.88;6.95;;;;;;;;;;5058706;28;20048;-71
2022/02/08 06:15:48;;;;;;;6.28;2.92;;;;;;;;;;5058795;28;20412;-69
2022/02/08 06:18:14;;;;;;;8.48;3.17;;;;;;;;;;5057753;28;20162;-72
2022/02/08 06:20:39;;;;;;;8.50;3.63;;;;;;;;;;5060531;28;20031;-71
2022/02/08 06:23:04;;;;;;;10.25;4.35;;;;;;;;;;5061944;28;20040;-73
2022/02/08 06:25:29;;;;;;;7.82;3.08;;;;;;;;;;5062647;28;20029;-71
2022/02/08 06:27:54;;;;;;;9.57;4.70;;;;;;;;;;5068259;28;20116;-69
2022/02/08 06:30:22;;;;;;;5.90;3.07;;;;;;;;;;5066191;28;20028;-69
2022/02/08 06:32:47;;;;;;;9.95;3.65;;;;;;;;;;5061765;28;20308;-69
2022/02/08 06:35:18;;;;;;;6.90;2.80;;;;;;;;;;5070779;28;20762;-70
2022/02/08 06:37:44;;;;;;;8.00;3.63;;;;;;;;;;5067364;28;20496;-71
2022/02/08 06:40:10;;;;;;;9.07;3.92;;;;;;;;;;5062116;28;20090;-71
2022/02/08 06:42:35;;;;;;;9.30;5.50;;;;;;;;;;5067689;28;20021;-69
2022/02/08 06:45:02;;;;;;;9.23;5.13;;;;;;;;;;5069117;28;20024;-72
2022/02/08 06:47:28;;;;;;;7.43;4.15;;;;;;;;;;5067283;28;20025;-69
2022/02/08 06:49:53;;;;;;;9.23;5.53;;;;;;;;;;5070402;28;20028;-69
2022/02/08 06:52:18;;;;;;;14.93;6.15;;;;;;;;;;5066743;28;20715;-69
2022/02/08 06:54:44;;;;;;;7.57;3.60;;;;;;;;;;5069916;28;20025;-72
2022/02/08 06:57:09;;;;;;;8.18;4.30;;;;;;;;;;5069114;28;20017;-70
2022/02/08 06:59:38;;;;;;;13.93;5.93;;;;;;;;;;5069308;28;20071;-71
2022/02/08 07:02:04;;;;;;;11.20;5.45;;;;;;;;;;5070045;28;20027;-69
2022/02/08 07:04:30;;;;;;;17.40;5.63;;;;;;;;;;5067561;28;20107;-69
2022/02/08 07:06:55;;;;;;;8.10;4.82;;;;;;;;;;5069107;28;20103;-71
2022/02/08 07:09:20;;;;;;;11.20;5.82;;;;;;;;;;5066135;28;20365;-69
2022/02/08 07:11:47;;;;;;;8.90;3.20;;;;;;;;;;5069444;28;20058;-69
2022/02/08 07:14:13;;;;;;;4.18;2.22;;;;;;;;;;5070240;28;20508;-72
2022/02/08 07:16:38;;;;;;;6.95;3.03;;;;;;;;;;5067459;28;20021;-70
2022/02/08 07:19:03;;;;;;;11.13;4.45;;;;;;;;;;5065895;28;20025;-71
2022/02/08 07:21:29;;;;;;;11.07;4.68;;;;;;;;;;5068389;28;20029;-69
2022/02/08 07:23:54;;;;;;;2.97;1.40;;;;;;;;;;5068986;28;20388;-72
2022/02/08 07:26:20;;;;;;;9.15;3.58;;;;;;;;;;5069376;28;20074;-70
2022/02/08 07:28:45;;;;;;;8.27;3.42;;;;;;;;;;5066303;28;20020;-71
2022/02/08 07:31:24;;;;;;;8.20;3.83;;;;;;;;;;5061244;28;20116;-70
2022/02/08 07:33:55;;;;;;;10.60;4.55;;;;;;;;;;5059807;28;20025;-69
2022/02/08 07:36:43;;;;;;;9.40;3.88;;;;;;;;;;5070429;28;20013;-73
2022/02/08 07:39:11;;;;;;;8.48;3.88;;;;;;;;;;5073832;28;20488;-69
2022/02/08 07:41:40;;;;;;;11.02;3.63;;;;;;;;;;5068166;28;20017;-70
2022/02/08 07:44:06;;;;;;;5.95;2.95;;;;;;;;;;5069688;28;20017;-69
2022/02/08 07:46:31;;;;;;;9.48;5.22;;;;;;;;;;5071490;28;20020;-68
2022/02/08 07:48:56;;;;;;;8.20;3.55;;;;;;;;;;5067826;28;20483;-74
2022/02/08 07:51:23;;;;;;;10.07;3.17;;;;;;;;;;5072517;28;20752;-69
2022/02/08 07:53:48;;;;;;;6.18;3.38;;;;;;;;;;5070125;28;20270;-71
2022/02/08 07:56:15;;;;;;;7.25;4.35;;;;;;;;;;5062999;28;20017;-69
2022/02/08 07:58:40;;;;;;;6.32;3.97;;;;;;;;;;5065849;28;20043;-69
2022/02/08 08:01:08;;;;;;;6.45;3.97;;;;;;;;;;5055379;28;20366;-69
2022/02/08 08:03:40;;;;;;;8.23;5.10;;;;;;;;;;5073789;28;20013;-70
2022/02/08 08:06:06;;;;;;;10.65;4.90;;;;;;;;;;5065534;28;20074;-70
2022/02/08 08:08:31;;;;;;;8.35;3.65;;;;;;;;;;5071881;28;20030;-71
2022/02/08 08:10:56;;;;;;;6.50;4.20;;;;;;;;;;5073505;28;20025;-69
2022/02/08 08:13:22;;;;;;;11.18;3.40;;;;;;;;;;5073090;28;20863;-68
2022/02/08 08:15:53;;;;;;;8.68;3.10;;;;;;;;;;5073423;28;20469;-69
2022/02/08 08:18:26;;;;;;;9.50;4.50;;;;;;;;;;5073240;28;20025;-71
2022/02/08 08:20:51;;;;;;;7.65;4.15;;;;;;;;;;5072148;28;20044;-71
2022/02/08 08:23:17;;;;;;;8.98;4.50;;;;;;;;;;5064815;28;20438;-69
2022/02/08 08:25:42;;;;;;;12.48;4.30;;;;;;;;;;5066993;28;20031;-69
2022/02/08 08:28:09;;;;;;;11.57;5.30;;;;;;;;;;5069712;28;20027;-70
2022/02/08 08:30:34;;;;;;;8.02;4.10;;;;;;;;;;5072851;28;20028;-70
2022/02/08 08:32:59;;;;;;;8.57;4.40;;;;;;;;;;5070284;28;20392;-71
2022/02/08 08:35:25;;;;;;;6.75;3.30;;;;;;;;;;5071977;28;20790;-70
2022/02/08 08:37:53;;;;;;;6.25;3.15;;;;;;;;;;5072483;28;20020;-70
2022/02/08 08:40:24;;;;;;;11.27;5.00;;;;;;;;;;5069171;28;20085;-70
2022/02/08 08:43:37;;;;;;;9.90;4.47;;;;;;;;;;5069127;28;20023;-69
2022/02/08 08:48:43;;;;;;;8.80;2.72;;;;;;;;;;5068855;28;20024;-70
2022/02/08 08:51:32;;;;;;;8.07;3.47;;;;;;;;;;5071712;28;20031;-70
2022/02/08 08:53:58;;;;;;;6.82;3.33;;;;;;;;;;5069486;28;20435;-70
2022/02/08 08:56:23;;;;;;;15.05;4.38;;;;;;;;;;5072007;28;20021;-71
2022/02/08 08:58:48;;;;;;;7.65;3.20;;;;;;;;;;5072813;28;20024;-70
2022/02/08 09:01:14;;;;;;;8.60;3.20;;;;;;;;;;5071717;28;20112;-70
2022/02/08 09:03:41;;;;;;;7.80;2.67;;;;;;;;;;5071724;28;20298;-70
2022/02/08 09:06:07;;;;;;;11.50;3.85;;;;;;;;;;5064171;28;20158;-70
2022/02/08 09:08:34;;;;;;;9.57;3.58;;;;;;;;;;5069864;28;20103;-70
2022/02/08 09:11:09;;;;;;;6.20;2.65;;;;;;;;;;5066002;28;20024;-70
2022/02/08 09:13:45;;;;;;;13.73;4.25;;;;;;;;;;5064497;28;20020;-70
2022/02/08 09:16:32;;;;;;;10.02;3.55;;;;;;;;;;5071621;28;20024;-70
2022/02/08 09:29:00;;;;;;;5.03;1.90;;;;;;;;;;5065668;28;20031;-70
2022/02/08 09:31:25;;;;;;;13.48;3.17;;;;;;;;;;5071060;28;20028;-70
2022/02/08 09:33:51;;;;;;;7.90;3.25;;;;;;;;;;5069370;28;20013;-70
2022/02/08 09:36:17;;;;;;;12.95;2.63;;;;;;;;;;5069784;28;20024;-70
2022/02/08 09:38:42;;;;;;;5.45;2.28;;;;;;;;;;5069136;28;20404;-70
2022/02/08 09:41:09;;;;;;;7.63;2.83;;;;;;;;;;5052862;28;20020;-70
2022/02/08 09:43:36;;;;;;;5.32;2.90;;;;;;;;;;5067264;28;20033;-70
2022/02/08 09:46:02;;;;;;;9.13;3.40;;;;;;;;;;5071703;28;20013;-70
2022/02/08 09:48:46;;;;;;;6.53;2.25;;;;;;;;;;5068815;28;20104;-70
2022/02/08 09:51:12;;;;;;;12.07;2.42;;;;;;;;;;5051714;28;20098;-70
2022/02/08 09:53:39;;;;;;;7.13;2.42;;;;;;;;;;5068316;28;20013;-70
2022/02/08 09:56:07;;;;;;;5.88;3.08;;;;;;;;;;5067660;28;20028;-70
2022/02/08 09:58:33;;;;;;;9.63;3.20;;;;;;;;;;5064482;28;20044;-70
2022/02/08 10:01:09;;;;;;;12.60;3.60;;;;;;;;;;5066345;28;20094;-70
2022/02/08 10:03:35;;;;;;;9.25;3.25;;;;;;;;;;5069998;28;20520;-70
2022/02/08 10:06:00;;;;;;;6.95;2.33;;;;;;;;;;5071352;28;20078;-70
2022/02/08 10:08:25;;;;;;;17.27;2.45;;;;;;;;;;5064574;28;20029;-70
2022/02/08 10:10:51;;;;;;;8.18;3.05;;;;;;;;;;5052509;28;20025;-70
2022/02/08 10:13:41;;;;;;;13.20;2.65;;;;;;;;;;5067350;28;20078;-70
2022/02/08 10:23:54;;;;;;;11.43;2.72;;;;;;;;;;5065663;28;20021;-70
2022/02/08 10:27:17;;;;;;;16.63;2.67;;;;;;;;;;5068614;28;20069;-70
2022/02/08 10:40:06;;;;;;;9.25;2.78;;;;;;;;;;5069679;28;20024;-71
2022/02/08 10:42:31;;;;;;;5.63;2.28;;;;;;;;;;5066539;28;20027;-73
2022/02/08 10:44:57;;;;;;;12.52;3.58;;;;;;;;;;5068694;28;20095;-72
2022/02/08 10:47:35;;;;;;;16.35;2.80;;;;;;;;;;5070126;28;20043;-72
2022/02/08 10:50:01;;;;;;;8.00;2.80;;;;;;;;;;5065456;28;20095;-71
2022/02/08 10:52:28;;;;;;;1.58;1.00;;;;;;;;;;5065475;28;20099;-71
2022/02/08 10:54:53;;;;;;;6.05;2.72;;;;;;;;;;5065948;28;20222;-73
2022/02/08 10:57:28;;;;;;;12.07;1.90;;;;;;;;;;5060721;28;20021;-71
2022/02/08 11:00:00;;;;;;;6.57;1.73;;;;;;;;;;5063803;28;20659;-70
2022/02/08 11:02:31;;;;;;;3.90;2.00;;;;;;;;;;5064986;28;20024;-70
2022/02/08 11:05:04;;;;;;;1.80;0.93;;;;;;;;;;5067202;28;20123;-71
2022/02/08 11:13:01;;;;;;;8.05;2.08;;;;;;;;;;5058400;28;20047;-70
2022/02/08 11:18:23;;;;;;;6.32;1.90;;;;;;;;;;5069296;28;20083;-71
2022/02/08 11:21:03;;;;;;;5.63;1.80;;;;;;;;;;5065449;28;20423;-71
2022/02/08 11:23:34;;;;;;;5.78;1.92;;;;;;;;;;5068542;28;20504;-72
2022/02/08 11:26:00;;;;;;;6.15;2.63;;;;;;;;;;5066402;28;20037;-73
2022/02/08 11:28:35;;;;;;;6.65;1.65;;;;;;;;;;5065218;28;20032;-73
2022/02/08 11:33:49;;;;;;;4.72;1.45;;;;;;;;;;5066657;28;20028;-70
2022/02/08 11:49:49;;;;;;;9.77;1.58;;;;;;;;;;5061951;28;20550;-70
2022/02/08 11:52:29;;;;;;;9.43;1.38;;;;;;;;;;5065845;28;20025;-70
2022/02/08 12:00:44;;;;;;;5.80;1.83;;;;;;;;;;5068837;28;20040;-71
2022/02/08 12:02:52;;;;;;;7.05;1.98;;;;;;;;;;5054754;28;20039;-71
2022/02/08 12:05:29;;;;;;;3.17;1.25;;;;;;;;;;5061637;28;20103;-70
2022/02/08 12:07:59;;;;;;;5.85;1.55;;;;;;;;;;5066464;28;20020;-71
2022/02/08 12:10:38;;;;;;;6.73;1.20;;;;;;;;;;5067340;28;20013;-70
2022/02/08 12:13:31;;;;;;;7.10;1.67;;;;;;;;;;5067467;28;20027;-70
2022/02/08 12:32:37;;;;;;;6.07;1.08;;;;;;;;;;5073295;28;20077;-71
2022/02/08 12:54:34;;;;;;;3.95;1.30;;;;;;;;;;5069660;28;20435;-70
2022/02/08 12:59:46;;;;;;;9.40;1.75;;;;;;;;;;5069926;28;20063;-71
2022/02/08 13:02:22;;;;;;;4.45;1.38;;;;;;;;;;5065507;28;20047;-72
2022/02/08 13:05:22;;;;;;;4.43;1.08;;;;;;;;;;5071737;28;20028;-72
2022/02/08 13:19:38;;;;;;;7.15;1.10;;;;;;;;;;5070219;28;20025;-71
2022/02/08 13:32:06;;;;;;;5.18;1.17;;;;;;;;;;5062909;28;20043;-71
2022/02/08 14:01:38;;;;;;;13.02;1.80;;;;;;;;;;5070007;28;20035;-68
2022/02/08 14:06:15;;;;;;;5.25;1.25;;;;;;;;;;5037870;28;20115;-71
2022/02/08 14:11:58;;;;;;;8.57;1.08;;;;;;;;;;5071423;28;20378;-70
2022/02/08 14:14:17;;;;;;;5.88;0.98;;;;;;;;;;5067938;28;20437;-69
2022/02/08 14:22:11;;;;;;;;;;;;;;;;;;5069957;28;20344;-72
2022/02/08 14:29:54;;;;;;;7.28;1.00;;;;;;;;;;5068632;28;20074;-73
2022/02/08 15:10:01;;;;;;;9.75;1.85;;;;;;;;;;5062540;28;20393;-73
2022/02/08 15:12:31;;;;;;;5.65;2.13;;;;;;;;;;5063058;28;20025;-72
2022/02/08 15:15:12;;;;;;;10.53;2.33;;;;;;;;;;5067577;28;20108;-71
2022/02/08 15:17:37;;;;;;;7.88;1.33;;;;;;;;;;5066752;28;20271;-71
2022/02/08 15:20:05;;;;;;;7.90;1.67;;;;;;;;;;5070492;28;20054;-71
2022/02/08 15:22:30;;;;;;;7.95;2.65;;;;;;;;;;5064659;28;20282;-71
2022/02/08 15:24:58;;;;;;;8.75;2.10;;;;;;;;;;5067514;28;20025;-71
2022/02/08 15:27:26;;;;;;;11.15;1.27;;;;;;;;;;5067678;28;20032;-71
2022/02/08 15:29:54;;;;;;;4.28;1.88;;;;;;;;;;5069093;28;20016;-71
2022/02/08 15:32:20;;;;;;;7.70;1.48;;;;;;;;;;5068124;28;20042;-71
2022/02/08 15:34:47;;;;;;;7.95;1.55;;;;;;;;;;5067201;28;20062;-71
2022/02/08 15:37:13;;;;;;;4.80;2.03;;;;;;;;;;5062604;28;20021;-72
2022/02/08 15:39:38;;;;;;;10.60;2.20;;;;;;;;;;5062114;28;20576;-71
2022/02/08 15:42:04;;;;;;;9.38;2.15;;;;;;;;;;5066240;28;20025;-72
2022/02/08 15:44:29;;;;;;;8.00;1.15;;;;;;;;;;5060888;28;20135;-72
2022/02/08 15:46:54;;;;;;;3.58;1.58;;;;;;;;;;5069497;28;20562;-70
2022/02/08 15:49:20;;;;;;;6.90;2.10;;;;;;;;;;5069024;28;20480;-71
2022/02/08 15:51:48;;;;;;;10.02;1.70;;;;;;;;;;5063875;28;20025;-71
2022/02/08 15:54:23;;;;;;;7.15;1.60;;;;;;;;;;5064014;28;20016;-71
2022/02/08 16:05:16;;;;;;;2.35;1.00;;;;;;;;;;5066025;28;20035;-72
2022/02/08 16:07:52;;;;;;;4.07;1.20;;;;;;;;;;5063718;28;20024;-71
2022/02/08 16:10:26;;;;;;;5.22;1.20;;;;;;;;;;5073366;28;20024;-71
2022/02/08 16:13:20;;;;;;;1.65;1.00;;;;;;;;;;5071846;28;20051;-71
2022/02/08 16:18:38;;;;;;;3.53;1.50;;;;;;;;;;5073748;28;20393;-71
2022/02/08 16:24:02;;;;;;;3.60;1.30;;;;;;;;;;5053265;28;20130;-71
2022/02/08 16:27:22;;;;;;;3.97;1.67;;;;;;;;;;5060162;28;20020;-70
2022/02/08 16:58:30;;;;;;;1.98;1.23;;;;;;;;;;5068871;28;20055;-72
2022/02/08 17:00:59;;;;;;;2.80;1.30;;;;;;;;;;5062447;28;20059;-72
2022/02/08 17:03:28;;;;;;;4.28;1.60;;;;;;;;;;5062382;28;20029;-71
2022/02/08 17:05:54;;;;;;;3.33;2.15;;;;;;;;;;5069237;28;20021;-70
2022/02/08 17:08:20;;;;;;;4.00;1.40;;;;;;;;;;5068798;28;20373;-71
2022/02/08 17:10:49;;;;;;;5.22;2.00;;;;;;;;;;5066377;28;20059;-70
2022/02/08 17:47:56;;;;;;;6.13;1.92;;;;;;;;;;5067841;28;20607;-72
2022/02/08 17:50:21;;;;;;;6.95;1.90;;;;;;;;;;5068358;28;20029;-71
2022/02/08 17:52:47;;;;;;;7.03;2.00;;;;;;;;;;5066736;28;20056;-73
2022/02/08 17:55:13;;;;;;;4.70;1.58;;;;;;;;;;5071696;28;20027;-73
2022/02/08 17:57:38;;;;;;;5.65;1.85;;;;;;;;;;5067535;28;20505;-72
2022/02/08 18:00:07;;;;;;;6.50;1.60;;;;;;;;;;5071500;28;20114;-72
2022/02/08 18:02:32;;;;;;;4.30;1.10;;;;;;;;;;5068633;28;20285;-73
2022/02/08 18:04:59;;;;;;;4.57;2.03;;;;;;;;;;5064086;28;20024;-72
2022/02/08 18:07:25;;;;;;;9.73;1.65;;;;;;;;;;5065503;28;20032;-72
2022/02/08 18:09:51;;;;;;;2.88;1.52;;;;;;;;;;5067553;28;20583;-72
2022/02/08 18:12:18;;;;;;;3.78;1.52;;;;;;;;;;5065084;28;20020;-74
2022/02/08 18:14:50;;;;;;;4.70;1.30;;;;;;;;;;5070472;28;20035;-72
2022/02/08 18:17:20;;;;;;;10.15;2.05;;;;;;;;;;5070539;28;20016;-73
2022/02/08 18:19:55;;;;;;;7.22;1.70;;;;;;;;;;5069349;28;20056;-73
2022/02/08 18:22:39;;;;;;;39.50;3.05;;;;;;;;;;5051391;28;20028;-72
2022/02/08 18:58:03;;;;;;;6.00;2.35;;;;;;;;;;5013870;28;20505;-72
2022/02/08 19:03:39;;;;;;;6.65;2.42;;;;;;;;;;5069456;28;20038;-71
2022/02/08 19:07:03;;;;;;;4.68;1.75;;;;;;;;;;5053287;28;21727;-71
2022/02/08 19:11:48;;;;;;;5.20;2.63;;;;;;;;;;5069400;28;20031;-71
2022/02/08 19:21:54;;;;;;;10.20;2.45;;;;;;;;;;5070025;28;20103;-72
2022/02/08 19:24:20;;;;;;;3.13;1.58;;;;;;;;;;5065724;28;20024;-73
2022/02/08 19:26:49;;;;;;;3.80;2.08;;;;;;;;;;5070724;28;20024;-72
2022/02/08 19:29:17;;;;;;;5.28;2.80;;;;;;;;;;5065352;28;20081;-73
2022/02/08 19:31:43;;;;;;;5.28;1.55;;;;;;;;;;5069038;28;20062;-73
2022/02/08 19:34:08;;;;;;;3.22;1.75;;;;;;;;;;5070604;28;20031;-73
2022/02/08 19:36:34;;;;;;;4.10;2.15;;;;;;;;;;5055844;28;20016;-72
2022/02/08 19:39:03;;;;;;;7.47;1.98;;;;;;;;;;5073477;28;20025;-72
2022/02/08 19:41:28;;;;;;;4.40;2.03;;;;;;;;;;5073023;28;20103;-72
2022/02/08 19:43:53;;;;;;;7.25;2.30;;;;;;;;;;5070781;28;20780;-72
2022/02/08 19:46:19;;;;;;;4.82;1.90;;;;;;;;;;5071591;28;20023;-72
2022/02/08 19:48:44;;;;;;;7.50;1.83;;;;;;;;;;5071529;28;20027;-73
2022/02/08 19:51:09;;;;;;;5.10;2.00;;;;;;;;;;5055344;28;20024;-72
2022/02/08 19:53:36;;;;;;;4.13;1.63;;;;;;;;;;5073562;28;20024;-73
2022/02/08 19:56:18;;;;;;;7.15;1.60;;;;;;;;;;5072511;28;20480;-72
2022/02/08 19:58:48;;;;;;;3.65;1.42;;;;;;;;;;5073408;28;20110;-73
2022/02/08 20:01:19;;;;;;;2.63;1.50;;;;;;;;;;5073987;28;20031;-72
2022/02/08 20:03:55;;;;;;;5.35;1.90;;;;;;;;;;5073178;28;20052;-72
2022/02/08 20:06:21;;;;;;;4.38;1.55;;;;;;;;;;5072864;28;20027;-73
2022/02/08 20:08:47;;;;;;;2.63;1.20;;;;;;;;;;5072990;28;20020;-74
2022/02/08 20:11:12;;;;;;;7.70;1.50;;;;;;;;;;5072498;28;20382;-73
2022/02/08 20:13:48;;;;;;;12.93;1.90;;;;;;;;;;5073180;28;20050;-73
2022/02/08 20:16:13;;;;;;;5.53;1.60;;;;;;;;;;5073495;28;20469;-73
2022/02/08 20:18:39;;;;;;;4.57;1.80;;;;;;;;;;5071977;28;20020;-72
2022/02/08 20:21:05;;;;;;;6.50;1.92;;;;;;;;;;5072101;28;20380;-72
2022/02/08 20:23:30;;;;;;;6.65;2.20;;;;;;;;;;5073227;28;20070;-73
2022/02/08 20:25:56;;;;;;;8.40;2.28;;;;;;;;;;5072812;28;20024;-72
2022/02/08 20:28:34;;;;;;;4.05;1.85;;;;;;;;;;5073416;28;20020;-73
2022/02/08 20:31:00;;;;;;;5.15;1.88;;;;;;;;;;5055399;28;20028;-72
2022/02/08 20:33:25;;;;;;;5.20;2.42;;;;;;;;;;5073256;28;20023;-72
2022/02/08 20:35:51;;;;;;;7.37;2.03;;;;;;;;;;5072817;28;20099;-73
2022/02/08 20:38:17;;;;;;;7.88;1.95;;;;;;;;;;5070524;28;20267;-73
2022/02/08 20:40:43;;;;;;;4.78;2.33;;;;;;;;;;5072658;28;20108;-73
2022/02/08 20:43:10;;;;;;;10.77;2.55;;;;;;;;;;5054640;28;20116;-73
2022/02/08 20:45:37;;;;;;;12.05;2.33;;;;;;;;;;5053581;28;20094;-73
2022/02/08 20:48:03;;;;;;;6.35;2.60;;;;;;;;;;5072358;28;20020;-73
2022/02/08 20:50:29;;;;;;;15.82;3.08;;;;;;;;;;5071953;28;20400;-73
2022/02/08 20:53:02;;;;;;;6.38;2.40;;;;;;;;;;5071452;28;20009;-73
2022/02/08 20:55:38;;;;;;;10.48;1.90;;;;;;;;;;5072234;28;20016;-73
2022/02/08 20:58:13;;;;;;;9.45;2.10;;;;;;;;;;5070285;28;20021;-73
2022/02/08 21:00:38;;;;;;;6.53;2.17;;;;;;;;;;5068342;28;20074;-73
2022/02/08 21:08:25;;;;;;;4.75;1.88;;;;;;;;;;5071331;28;19953;-73
2022/02/08 21:10:50;;;;;;;8.35;1.98;;;;;;;;;;5071833;28;20037;-73
2022/02/08 21:13:18;;;;;;;7.35;1.80;;;;;;;;;;5082562;22;20032;-74
2022/02/08 21:15:43;;;;;;;11.38;3.40;;;;;;;;;;5082387;28;20025;-75
2022/02/08 21:18:09;;;;;;;5.70;2.05;;;;;;;;;;5063888;28;20020;-75
2022/02/08 21:20:34;;;;;;;6.70;2.35;;;;;;;;;;5089307;28;20042;-74
2022/02/08 21:22:59;;;;;;;3.38;1.88;;;;;;;;;;5089848;28;20085;-75
2022/02/08 21:25:24;;;;;;;6.38;1.90;;;;;;;;;;5071506;28;20071;-75
2022/02/08 21:27:59;;;;;;;5.07;1.77;;;;;;;;;;5067415;28;20031;-74
2022/02/08 21:49:10;;;;;;;3.15;1.80;;;;;;;;;;5071321;28;20097;-72
2022/02/08 21:54:06;;;;;;;9.52;2.42;;;;;;;;;;5071418;28;20020;-72
2022/02/08 21:56:32;;;;;;;5.65;2.30;;;;;;;;;;5067165;28;20089;-72
2022/02/08 21:58:57;;;;;;;5.17;2.30;;;;;;;;;;5068545;28;20380;-72
2022/02/08 22:01:22;;;;;;;6.67;2.00;;;;;;;;;;5070386;28;20263;-72
2022/02/08 22:03:47;;;;;;;5.30;2.38;;;;;;;;;;5069709;28;20266;-71
2022/02/08 22:06:12;;;;;;;13.95;1.92;;;;;;;;;;5068711;28;20032;-71
2022/02/08 22:08:40;;;;;;;3.67;1.75;;;;;;;;;;5068611;28;20040;-71
2022/02/08 22:21:20;;;;;;;6.43;2.90;;;;;;;;;;5070970;28;20024;-72
2022/02/08 22:23:54;;;;;;;10.30;3.03;;;;;;;;;;5070927;28;20024;-72
2022/02/08 22:31:31;;;;;;;5.28;1.60;;;;;;;;;;5071276;28;20020;-70
2022/02/08 22:34:02;;;;;;;5.35;2.08;;;;;;;;;;5071030;28;20146;-73